sensor_id;sensor_type;location;lat;lon;timestamp;pressure;altitude;pressure_sealevel;temperature;humidity
74834;BME280;63361;52.384;20.930;2022-09-27T00:01:51;99425.06;;;9.10;100.00
74834;BME280;63361;52.384;20.930;2022-09-27T00:04:16;99432.38;;;9.23;100.00
74834;BME280;63361;52.384;20.930;2022-09-27T00:06:41;99443.28;;;9.32;100.00
74834;BME280;63361;52.384;20.930;2022-09-27T00:09:08;99441.69;;;9.31;100.00
74834;BME280;63361;52.384;20.930;2022-09-27T00:11:36;99443.69;;;9.39;100.00
74834;BME280;63361;52.384;20.930;2022-09-27T00:14:02;99436.72;;;9.38;100.00
74834;BME280;63361;52.384;20.930;2022-09-27T00:16:29;99415.84;;;9.30;100.00
74834;BME280;63361;52.384;20.930;2022-09-27T00:18:59;99417.78;;;9.43;100.00
74834;BME280;63361;52.384;20.930;2022-09-27T00:21:26;99424.47;;;9.45;100.00
74834;BME280;63361;52.384;20.930;2022-09-27T00:23:52;99427.34;;;9.49;100.00
74834;BME280;63361;52.384;20.930;2022-09-27T00:26:18;99419.47;;;9.39;100.00
74834;BME280;63361;52.384;20.930;2022-09-27T00:28:43;99415.97;;;9.38;100.00
74834;BME280;63361;52.384;20.930;2022-09-27T00:31:20;99412.25;;;9.34;100.00
74834;BME280;63361;52.384;20.930;2022-09-27T00:33:50;99410.66;;;9.33;100.00
74834;BME280;63361;52.384;20.930;2022-09-27T00:36:17;99419.06;;;9.32;100.00
74834;BME280;63361;52.384;20.930;2022-09-27T00:38:44;99404.28;;;9.29;100.00
74834;BME280;63361;52.384;20.930;2022-09-27T00:41:13;99411.88;;;9.41;100.00
74834;BME280;63361;52.384;20.930;2022-09-27T00:43:49;99394.13;;;9.40;100.00
74834;BME280;63361;52.384;20.930;2022-09-27T00:46:25;99385.03;;;9.36;100.00
74834;BME280;63361;52.384;20.930;2022-09-27T00:51:26;99396.81;;;9.40;100.00
74834;BME280;63361;52.384;20.930;2022-09-27T00:53:54;99379.75;;;9.31;100.00
74834;BME280;63361;52.384;20.930;2022-09-27T00:56:24;99389.75;;;9.44;100.00
74834;BME280;63361;52.384;20.930;2022-09-27T00:58:58;99389.94;;;9.47;100.00
74834;BME280;63361;52.384;20.930;2022-09-27T01:01:25;99392.03;;;9.50;100.00
74834;BME280;63361;52.384;20.930;2022-09-27T01:04:06;99394.16;;;9.53;100.00
74834;BME280;63361;52.384;20.930;2022-09-27T01:06:33;99374.56;;;9.48;100.00
74834;BME280;63361;52.384;20.930;2022-09-27T01:08:58;99378.69;;;9.45;100.00
74834;BME280;63361;52.384;20.930;2022-09-27T01:14:12;99370.91;;;9.44;100.00
74834;BME280;63361;52.384;20.930;2022-09-27T01:16:47;99389.25;;;9.56;100.00
74834;BME280;63361;52.384;20.930;2022-09-27T01:22:04;99373.69;;;9.52;100.00
74834;BME280;63361;52.384;20.930;2022-09-27T01:30:15;99379.19;;;9.61;100.00
74834;BME280;63361;52.384;20.930;2022-09-27T01:35:33;99388.16;;;9.43;100.00
74834;BME280;63361;52.384;20.930;2022-09-27T01:40:34;99382.75;;;9.43;100.00
74834;BME280;63361;52.384;20.930;2022-09-27T01:43:24;99370.91;;;9.44;100.00
74834;BME280;63361;52.384;20.930;2022-09-27T01:48:29;99359.19;;;9.35;100.00
74834;BME280;63361;52.384;20.930;2022-09-27T01:51:02;99366.47;;;9.34;100.00
74834;BME280;63361;52.384;20.930;2022-09-27T01:53:34;99361.09;;;9.34;100.00
74834;BME280;63361;52.384;20.930;2022-09-27T01:56:14;99353.00;;;9.21;100.00
74834;BME280;63361;52.384;20.930;2022-09-27T02:01:06;99354.78;;;9.11;100.00
74834;BME280;63361;52.384;20.930;2022-09-27T02:03:39;99362.25;;;9.14;100.00
74834;BME280;63361;52.384;20.930;2022-09-27T02:06:13;99362.13;;;9.06;100.00
74834;BME280;63361;52.384;20.930;2022-09-27T02:11:13;99358.06;;;9.08;100.00
74834;BME280;63361;52.384;20.930;2022-09-27T02:16:48;99358.56;;;9.10;100.00
74834;BME280;63361;52.384;20.930;2022-09-27T02:24:50;99348.38;;;9.07;100.00
74834;BME280;63361;52.384;20.930;2022-09-27T02:27:24;99336.69;;;8.98;100.00
74834;BME280;63361;52.384;20.930;2022-09-27T02:30:01;99347.75;;;8.97;100.00
74834;BME280;63361;52.384;20.930;2022-09-27T02:32:27;99331.50;;;9.02;100.00
74834;BME280;63361;52.384;20.930;2022-09-27T02:34:54;99338.41;;;9.08;100.00
74834;BME280;63361;52.384;20.930;2022-09-27T02:37:22;99333.91;;;9.03;100.00
74834;BME280;63361;52.384;20.930;2022-09-27T02:39:47;99329.44;;;8.99;100.00
74834;BME280;63361;52.384;20.930;2022-09-27T02:42:13;99325.81;;;9.03;100.00
74834;BME280;63361;52.384;20.930;2022-09-27T02:44:38;99332.94;;;9.13;100.00
74834;BME280;63361;52.384;20.930;2022-09-27T02:52:35;99337.81;;;9.11;100.00
74834;BME280;63361;52.384;20.930;2022-09-27T02:55:32;99336.22;;;9.10;100.00
74834;BME280;63361;52.384;20.930;2022-09-27T03:01:11;99326.03;;;9.07;100.00
74834;BME280;63361;52.384;20.930;2022-09-27T03:03:50;99331.94;;;9.09;100.00
74834;BME280;63361;52.384;20.930;2022-09-27T03:06:19;99321.16;;;9.09;100.00
74834;BME280;63361;52.384;20.930;2022-09-27T03:08:46;99318.41;;;9.14;100.00
74834;BME280;63361;52.384;20.930;2022-09-27T03:11:11;99316.78;;;9.13;100.00
74834;BME280;63361;52.384;20.930;2022-09-27T03:13:37;99313.78;;;9.01;100.00
74834;BME280;63361;52.384;20.930;2022-09-27T03:16:04;99319.47;;;8.99;100.00
74834;BME280;63361;52.384;20.930;2022-09-27T03:18:30;99307.09;;;8.98;100.00
74834;BME280;63361;52.384;20.930;2022-09-27T03:20:56;99320.03;;;8.96;100.00
74834;BME280;63361;52.384;20.930;2022-09-27T03:23:21;99315.94;;;8.85;100.00
74834;BME280;63361;52.384;20.930;2022-09-27T03:25:47;99316.63;;;8.91;100.00
74834;BME280;63361;52.384;20.930;2022-09-27T03:28:12;99320.16;;;9.05;100.00
74834;BME280;63361;52.384;20.930;2022-09-27T03:30:38;99316.59;;;9.09;100.00
74834;BME280;63361;52.384;20.930;2022-09-27T03:33:03;99305.81;;;9.09;100.00
74834;BME280;63361;52.384;20.930;2022-09-27T03:35:29;99317.47;;;9.18;100.00
74834;BME280;63361;52.384;20.930;2022-09-27T03:37:54;99315.13;;;9.31;100.00
74834;BME280;63361;52.384;20.930;2022-09-27T03:40:20;99304.25;;;9.36;100.00
74834;BME280;63361;52.384;20.930;2022-09-27T03:42:45;99297.97;;;9.40;100.00
74834;BME280;63361;52.384;20.930;2022-09-27T03:45:10;99312.44;;;9.58;100.00
74834;BME280;63361;52.384;20.930;2022-09-27T03:47:40;99297.97;;;9.54;100.00
74834;BME280;63361;52.384;20.930;2022-09-27T03:50:07;99302.16;;;9.60;100.00
74834;BME280;63361;52.384;20.930;2022-09-27T03:52:33;99307.34;;;9.70;100.00
74834;BME280;63361;52.384;20.930;2022-09-27T03:54:58;99288.47;;;9.70;100.00
74834;BME280;63361;52.384;20.930;2022-09-27T03:57:24;99297.72;;;9.78;100.00
74834;BME280;63361;52.384;20.930;2022-09-27T03:59:49;99287.88;;;9.73;100.00
74834;BME280;63361;52.384;20.930;2022-09-27T04:02:15;99300.44;;;9.92;100.00
74834;BME280;63361;52.384;20.930;2022-09-27T04:04:40;99303.00;;;9.97;100.00
74834;BME280;63361;52.384;20.930;2022-09-27T04:07:07;99296.00;;;9.96;100.00
74834;BME280;63361;52.384;20.930;2022-09-27T04:09:34;99281.22;;;9.93;100.00
74834;BME280;63361;52.384;20.930;2022-09-27T04:12:00;99274.88;;;9.89;100.00
74834;BME280;63361;52.384;20.930;2022-09-27T04:14:25;99280.63;;;9.96;100.00
74834;BME280;63361;52.384;20.930;2022-09-27T04:16:50;99285.22;;;9.96;100.00
74834;BME280;63361;52.384;20.930;2022-09-27T04:19:16;99280.34;;;9.98;100.00
74834;BME280;63361;52.384;20.930;2022-09-27T04:21:41;99291.69;;;10.08;100.00
74834;BME280;63361;52.384;20.930;2022-09-27T04:24:07;99284.41;;;10.09;100.00
74834;BME280;63361;52.384;20.930;2022-09-27T04:26:32;99277.78;;;10.15;100.00
74834;BME280;63361;52.384;20.930;2022-09-27T04:28:58;99277.00;;;10.14;100.00
74834;BME280;63361;52.384;20.930;2022-09-27T04:31:23;99275.91;;;10.15;100.00
74834;BME280;63361;52.384;20.930;2022-09-27T04:33:49;99279.88;;;10.18;100.00
74834;BME280;63361;52.384;20.930;2022-09-27T04:36:17;99280.78;;;10.27;100.00
74834;BME280;63361;52.384;20.930;2022-09-27T04:38:58;99279.38;;;10.30;100.00
74834;BME280;63361;52.384;20.930;2022-09-27T04:41:24;99273.69;;;10.31;100.00
74834;BME280;63361;52.384;20.930;2022-09-27T04:43:51;99274.66;;;10.35;100.00
74834;BME280;63361;52.384;20.930;2022-09-27T04:46:17;99277.38;;;10.35;100.00
74834;BME280;63361;52.384;20.930;2022-09-27T04:48:43;99270.19;;;10.31;100.00
74834;BME280;63361;52.384;20.930;2022-09-27T04:51:09;99281.22;;;10.43;100.00
74834;BME280;63361;52.384;20.930;2022-09-27T04:53:34;99284.59;;;10.48;100.00
74834;BME280;63361;52.384;20.930;2022-09-27T04:56:00;99281.22;;;10.43;100.00
74834;BME280;63361;52.384;20.930;2022-09-27T04:58:30;99284.91;;;10.47;100.00
74834;BME280;63361;52.384;20.930;2022-09-27T05:00:57;99277.56;;;10.39;100.00
74834;BME280;63361;52.384;20.930;2022-09-27T05:03:23;99280.41;;;10.42;100.00
74834;BME280;63361;52.384;20.930;2022-09-27T05:05:49;99273.44;;;10.41;100.00
74834;BME280;63361;52.384;20.930;2022-09-27T05:08:14;99289.91;;;10.40;100.00
74834;BME280;63361;52.384;20.930;2022-09-27T05:10:39;99265.78;;;10.35;100.00
74834;BME280;63361;52.384;20.930;2022-09-27T05:13:05;99283.19;;;10.51;100.00
74834;BME280;63361;52.384;20.930;2022-09-27T05:15:31;99284.00;;;10.51;100.00
74834;BME280;63361;52.384;20.930;2022-09-27T05:17:56;99285.09;;;10.50;100.00
74834;BME280;63361;52.384;20.930;2022-09-27T05:20:23;99264.97;;;10.34;100.00
74834;BME280;63361;52.384;20.930;2022-09-27T05:22:50;99264.22;;;10.42;100.00
74834;BME280;63361;52.384;20.930;2022-09-27T05:25:15;99271.72;;;10.45;100.00
74834;BME280;63361;52.384;20.930;2022-09-27T05:27:41;99274.81;;;10.52;100.00
74834;BME280;63361;52.384;20.930;2022-09-27T05:30:07;99279.44;;;10.61;100.00
74834;BME280;63361;52.384;20.930;2022-09-27T05:32:33;99272.75;;;10.58;100.00
74834;BME280;63361;52.384;20.930;2022-09-27T05:34:59;99276.03;;;10.69;100.00
74834;BME280;63361;52.384;20.930;2022-09-27T05:37:24;99268.53;;;10.66;100.00
74834;BME280;63361;52.384;20.930;2022-09-27T05:39:50;99250.47;;;10.75;100.00
74834;BME280;63361;52.384;20.930;2022-09-27T05:42:16;99275.97;;;10.91;100.00
74834;BME280;63361;52.384;20.930;2022-09-27T05:44:41;99260.66;;;10.78;100.00
74834;BME280;63361;52.384;20.930;2022-09-27T05:47:13;99262.47;;;10.91;100.00
74834;BME280;63361;52.384;20.930;2022-09-27T05:49:38;99229.38;;;10.77;100.00
74834;BME280;63361;52.384;20.930;2022-09-27T05:52:05;99264.75;;;10.98;100.00
74834;BME280;63361;52.384;20.930;2022-09-27T05:54:30;99261.09;;;11.02;100.00
74834;BME280;63361;52.384;20.930;2022-09-27T05:56:56;99268.97;;;11.21;100.00
74834;BME280;63361;52.384;20.930;2022-09-27T05:59:25;99267.25;;;10.94;100.00
74834;BME280;63361;52.384;20.930;2022-09-27T06:01:51;99283.38;;;11.08;100.00
74834;BME280;63361;52.384;20.930;2022-09-27T06:04:18;99266.09;;;10.86;100.00
74834;BME280;63361;52.384;20.930;2022-09-27T06:06:43;99283.34;;;10.99;100.00
74834;BME280;63361;52.384;20.930;2022-09-27T06:09:10;99284.47;;;11.07;100.00
74834;BME280;63361;52.384;20.930;2022-09-27T06:11:36;99284.97;;;11.09;100.00
74834;BME280;63361;52.384;20.930;2022-09-27T06:14:01;99290.09;;;11.19;100.00
74834;BME280;63361;52.384;20.930;2022-09-27T06:16:26;99284.16;;;11.08;100.00
74834;BME280;63361;52.384;20.930;2022-09-27T06:18:52;99265.06;;;10.96;100.00
74834;BME280;63361;52.384;20.930;2022-09-27T06:21:18;99279.25;;;11.10;99.65
74834;BME280;63361;52.384;20.930;2022-09-27T06:23:43;99272.75;;;11.11;99.28
74834;BME280;63361;52.384;20.930;2022-09-27T06:26:08;99269.09;;;11.16;98.64
74834;BME280;63361;52.384;20.930;2022-09-27T06:28:35;99278.38;;;11.23;98.06
74834;BME280;63361;52.384;20.930;2022-09-27T06:31:00;99278.84;;;11.25;98.29
74834;BME280;63361;52.384;20.930;2022-09-27T06:33:26;99283.47;;;11.25;98.61
74834;BME280;63361;52.384;20.930;2022-09-27T06:35:54;99281.25;;;11.27;98.33
74834;BME280;63361;52.384;20.930;2022-09-27T06:38:19;99247.91;;;11.01;97.96
74834;BME280;63361;52.384;20.930;2022-09-27T06:40:45;99280.13;;;11.28;98.01
74834;BME280;63361;52.384;20.930;2022-09-27T06:43:17;99273.41;;;11.17;98.44
74834;BME280;63361;52.384;20.930;2022-09-27T06:45:43;99243.69;;;11.17;98.43
74834;BME280;63361;52.384;20.930;2022-09-27T06:48:11;99249.03;;;11.39;98.15
74834;BME280;63361;52.384;20.930;2022-09-27T06:50:38;99256.94;;;11.36;96.55
74834;BME280;63361;52.384;20.930;2022-09-27T06:53:06;99255.97;;;11.23;97.08
74834;BME280;63361;52.384;20.930;2022-09-27T06:55:32;99249.78;;;11.31;96.59
74834;BME280;63361;52.384;20.930;2022-09-27T06:58:00;99254.22;;;11.27;96.93
74834;BME280;63361;52.384;20.930;2022-09-27T07:00:44;99260.19;;;11.07;97.35
74834;BME280;63361;52.384;20.930;2022-09-27T07:03:12;99257.69;;;11.19;97.96
74834;BME280;63361;52.384;20.930;2022-09-27T07:05:39;99266.75;;;11.14;97.46
74834;BME280;63361;52.384;20.930;2022-09-27T07:08:06;99266.69;;;11.06;97.11
74834;BME280;63361;52.384;20.930;2022-09-27T07:10:34;99282.28;;;11.17;97.21
74834;BME280;63361;52.384;20.930;2022-09-27T07:13:08;99287.50;;;11.05;97.50
74834;BME280;63361;52.384;20.930;2022-09-27T07:15:34;99306.84;;;11.30;96.26
74834;BME280;63361;52.384;20.930;2022-09-27T07:18:04;99299.75;;;11.11;95.57
74834;BME280;63361;52.384;20.930;2022-09-27T07:20:30;99318.09;;;11.01;95.99
74834;BME280;63361;52.384;20.930;2022-09-27T07:22:57;99294.88;;;10.91;96.31
74834;BME280;63361;52.384;20.930;2022-09-27T07:25:23;99308.66;;;11.12;95.70
74834;BME280;63361;52.384;20.930;2022-09-27T07:27:49;99282.66;;;10.93;95.44
74834;BME280;63361;52.384;20.930;2022-09-27T07:30:15;99284.59;;;11.02;95.33
74834;BME280;63361;52.384;20.930;2022-09-27T07:32:41;99312.31;;;11.16;95.82
74834;BME280;63361;52.384;20.930;2022-09-27T07:35:08;99305.38;;;11.23;95.44
74834;BME280;63361;52.384;20.930;2022-09-27T07:37:35;99304.97;;;11.08;95.14
74834;BME280;63361;52.384;20.930;2022-09-27T07:40:02;99306.59;;;11.17;95.57
74834;BME280;63361;52.384;20.930;2022-09-27T07:42:29;99282.28;;;11.09;94.92
74834;BME280;63361;52.384;20.930;2022-09-27T07:44:55;99301.75;;;11.28;95.45
74834;BME280;63361;52.384;20.930;2022-09-27T07:47:22;99304.59;;;11.32;94.98
74834;BME280;63361;52.384;20.930;2022-09-27T07:49:52;99292.56;;;11.38;94.53
74834;BME280;63361;52.384;20.930;2022-09-27T07:52:18;99304.78;;;11.35;94.88
74834;BME280;63361;52.384;20.930;2022-09-27T07:54:45;99289.03;;;11.28;95.27
74834;BME280;63361;52.384;20.930;2022-09-27T07:57:11;99283.38;;;11.47;94.38
74834;BME280;63361;52.384;20.930;2022-09-27T07:59:36;99285.03;;;11.66;94.12
74834;BME280;63361;52.384;20.930;2022-09-27T08:02:02;99282.75;;;11.50;93.85
74834;BME280;63361;52.384;20.930;2022-09-27T08:04:27;99297.84;;;11.51;94.72
74834;BME280;63361;52.384;20.930;2022-09-27T08:06:53;99291.69;;;11.59;93.89
74834;BME280;63361;52.384;20.930;2022-09-27T08:09:18;99284.41;;;11.69;94.34
74834;BME280;63361;52.384;20.930;2022-09-27T08:11:44;99297.84;;;12.00;91.99
74834;BME280;63361;52.384;20.930;2022-09-27T08:14:10;99295.47;;;12.24;92.29
74834;BME280;63361;52.384;20.930;2022-09-27T08:16:35;99270.31;;;12.58;90.92
74834;BME280;63361;52.384;20.930;2022-09-27T08:19:01;99281.47;;;12.48;90.82
74834;BME280;63361;52.384;20.930;2022-09-27T08:21:26;99283.38;;;12.39;90.87
74834;BME280;63361;52.384;20.930;2022-09-27T08:23:52;99293.56;;;12.59;90.31
74834;BME280;63361;52.384;20.930;2022-09-27T08:26:18;99299.47;;;12.35;90.31
74834;BME280;63361;52.384;20.930;2022-09-27T08:28:46;99269.22;;;12.50;90.47
74834;BME280;63361;52.384;20.930;2022-09-27T08:31:11;99291.94;;;12.75;89.85
74834;BME280;63361;52.384;20.930;2022-09-27T08:33:37;99290.69;;;12.64;89.37
74834;BME280;63361;52.384;20.930;2022-09-27T08:36:02;99275.25;;;12.64;89.29
74834;BME280;63361;52.384;20.930;2022-09-27T08:38:27;99291.00;;;12.80;88.27
74834;BME280;63361;52.384;20.930;2022-09-27T08:40:55;99299.22;;;13.00;87.36
74834;BME280;63361;52.384;20.930;2022-09-27T08:46:14;99301.41;;;13.24;87.74
74834;BME280;63361;52.384;20.930;2022-09-27T08:48:47;99298.88;;;13.28;86.59
74834;BME280;63361;52.384;20.930;2022-09-27T08:51:14;99297.91;;;13.24;85.86
74834;BME280;63361;52.384;20.930;2022-09-27T08:53:53;99297.00;;;12.94;88.02
74834;BME280;63361;52.384;20.930;2022-09-27T08:56:20;99281.84;;;13.01;86.35
74834;BME280;63361;52.384;20.930;2022-09-27T08:59:09;99306.22;;;13.19;86.62
74834;BME280;63361;52.384;20.930;2022-09-27T09:01:36;99295.16;;;13.32;85.88
74834;BME280;63361;52.384;20.930;2022-09-27T09:04:03;99283.94;;;12.96;86.76
74834;BME280;63361;52.384;20.930;2022-09-27T09:06:38;99304.78;;;13.13;86.71
74834;BME280;63361;52.384;20.930;2022-09-27T09:09:24;99298.25;;;13.14;86.30
74834;BME280;63361;52.384;20.930;2022-09-27T09:18:11;99284.41;;;13.53;83.71
74834;BME280;63361;52.384;20.930;2022-09-27T09:26:37;99274.19;;;13.80;82.30
74834;BME280;63361;52.384;20.930;2022-09-27T09:32:11;99269.78;;;14.17;81.64
74834;BME280;63361;52.384;20.930;2022-09-27T09:34:48;99257.75;;;14.80;79.01
74834;BME280;63361;52.384;20.930;2022-09-27T09:37:35;99273.78;;;14.73;78.47
74834;BME280;63361;52.384;20.930;2022-09-27T09:43:03;99233.78;;;14.94;76.55
74834;BME280;63361;52.384;20.930;2022-09-27T09:45:32;99259.72;;;15.04;76.13
74834;BME280;63361;52.384;20.930;2022-09-27T09:48:11;99276.72;;;14.26;80.01
74834;BME280;63361;52.384;20.930;2022-09-27T09:50:50;99276.59;;;14.64;77.90
74834;BME280;63361;52.384;20.930;2022-09-27T09:53:20;99270.06;;;14.77;77.33
74834;BME280;63361;52.384;20.930;2022-09-27T09:55:56;99273.09;;;15.21;76.89
74834;BME280;63361;52.384;20.930;2022-09-27T09:58:54;99280.13;;;15.22;75.60
74834;BME280;63361;52.384;20.930;2022-09-27T10:01:27;99265.94;;;14.92;77.27
74834;BME280;63361;52.384;20.930;2022-09-27T10:03:55;99266.47;;;14.98;77.01
74834;BME280;63361;52.384;20.930;2022-09-27T10:06:22;99261.41;;;14.96;77.54
74834;BME280;63361;52.384;20.930;2022-09-27T10:08:48;99235.69;;;14.49;77.84
74834;BME280;63361;52.384;20.930;2022-09-27T10:11:22;99250.28;;;14.89;77.74
74834;BME280;63361;52.384;20.930;2022-09-27T10:13:49;99247.16;;;14.33;79.29
74834;BME280;63361;52.384;20.930;2022-09-27T10:16:17;99261.50;;;14.34;79.51
74834;BME280;63361;52.384;20.930;2022-09-27T10:18:43;99254.28;;;14.59;78.63
74834;BME280;63361;52.384;20.930;2022-09-27T10:21:14;99241.63;;;14.63;78.14
74834;BME280;63361;52.384;20.930;2022-09-27T10:24:09;99249.66;;;15.17;76.61
74834;BME280;63361;52.384;20.930;2022-09-27T10:26:36;99236.19;;;15.20;76.31
74834;BME280;63361;52.384;20.930;2022-09-27T10:31:42;99245.19;;;14.88;76.66
74834;BME280;63361;52.384;20.930;2022-09-27T10:34:36;99244.34;;;15.32;74.45
74834;BME280;63361;52.384;20.930;2022-09-27T10:39:30;99235.50;;;15.23;75.51
74834;BME280;63361;52.384;20.930;2022-09-27T10:41:56;99243.56;;;14.21;79.14
74834;BME280;63361;52.384;20.930;2022-09-27T10:46:49;99242.25;;;14.93;77.07
74834;BME280;63361;52.384;20.930;2022-09-27T10:49:33;99238.22;;;15.47;75.01
74834;BME280;63361;52.384;20.930;2022-09-27T10:52:05;99231.66;;;15.48;74.84
74834;BME280;63361;52.384;20.930;2022-09-27T10:54:34;99228.94;;;15.12;75.56
74834;BME280;63361;52.384;20.930;2022-09-27T10:57:15;99230.38;;;14.97;75.91
74834;BME280;63361;52.384;20.930;2022-09-27T10:59:44;99220.41;;;14.44;78.02
74834;BME280;63361;52.384;20.930;2022-09-27T11:02:32;99214.63;;;14.46;78.12
74834;BME280;63361;52.384;20.930;2022-09-27T11:07:55;99234.72;;;14.65;78.16
74834;BME280;63361;52.384;20.930;2022-09-27T11:10:33;99225.44;;;15.11;76.21
74834;BME280;63361;52.384;20.930;2022-09-27T11:13:17;99206.50;;;15.64;73.58
74834;BME280;63361;52.384;20.930;2022-09-27T11:21:17;99221.13;;;15.59;74.36
74834;BME280;63361;52.384;20.930;2022-09-27T11:29:09;99210.13;;;15.31;73.46
74834;BME280;63361;52.384;20.930;2022-09-27T11:39:54;99205.44;;;14.17;78.46
74834;BME280;63361;52.384;20.930;2022-09-27T11:45:01;99186.56;;;14.21;77.85
74834;BME280;63361;52.384;20.930;2022-09-27T11:55:41;99190.97;;;15.64;73.29
74834;BME280;63361;52.384;20.930;2022-09-27T11:58:25;99168.22;;;16.25;70.03
74834;BME280;63361;52.384;20.930;2022-09-27T12:06:46;99194.78;;;15.75;72.81
74834;BME280;63361;52.384;20.930;2022-09-27T12:09:21;99194.22;;;15.82;72.20
74834;BME280;63361;52.384;20.930;2022-09-27T12:14:39;99175.78;;;15.51;72.73
74834;BME280;63361;52.384;20.930;2022-09-27T12:17:11;99186.78;;;15.67;72.54
74834;BME280;63361;52.384;20.930;2022-09-27T12:19:42;99175.69;;;15.23;74.09
74834;BME280;63361;52.384;20.930;2022-09-27T12:22:14;99171.50;;;15.90;72.37
74834;BME280;63361;52.384;20.930;2022-09-27T12:24:42;99168.53;;;15.67;73.06
74834;BME280;63361;52.384;20.930;2022-09-27T12:27:15;99168.78;;;15.13;74.01
74834;BME280;63361;52.384;20.930;2022-09-27T12:29:45;99171.28;;;15.55;72.70
74834;BME280;63361;52.384;20.930;2022-09-27T12:34:41;99167.06;;;15.45;74.46
74834;BME280;63361;52.384;20.930;2022-09-27T12:37:15;99156.28;;;15.49;73.00
74834;BME280;63361;52.384;20.930;2022-09-27T12:42:32;99149.03;;;15.53;72.55
74834;BME280;63361;52.384;20.930;2022-09-27T12:45:00;99142.22;;;15.59;71.19
74834;BME280;63361;52.384;20.930;2022-09-27T12:50:38;99152.84;;;16.04;69.76
74834;BME280;63361;52.384;20.930;2022-09-27T12:53:14;99153.31;;;16.50;69.20
74834;BME280;63361;52.384;20.930;2022-09-27T12:55:58;99146.59;;;15.88;70.20
74834;BME280;63361;52.384;20.930;2022-09-27T12:59:12;99155.56;;;16.04;70.25
74834;BME280;63361;52.384;20.930;2022-09-27T13:09:45;99138.72;;;16.42;68.18
74834;BME280;63361;52.384;20.930;2022-09-27T13:12:26;99128.47;;;16.08;69.65
74834;BME280;63361;52.384;20.930;2022-09-27T13:23:02;99132.28;;;15.91;69.31
74834;BME280;63361;52.384;20.930;2022-09-27T13:25:51;99123.34;;;15.38;71.51
74834;BME280;63361;52.384;20.930;2022-09-27T13:30:57;99123.22;;;15.35;72.12
74834;BME280;63361;52.384;20.930;2022-09-27T13:39:00;99125.84;;;15.56;71.03
74834;BME280;63361;52.384;20.930;2022-09-27T13:41:38;99107.09;;;15.54;71.32
74834;BME280;63361;52.384;20.930;2022-09-27T13:47:22;99118.13;;;15.58;71.42
74834;BME280;63361;52.384;20.930;2022-09-27T13:49:56;99097.00;;;15.67;71.06
74834;BME280;63361;52.384;20.930;2022-09-27T13:52:29;99104.41;;;15.30;71.63
74834;BME280;63361;52.384;20.930;2022-09-27T13:55:00;99111.00;;;15.41;72.13
74834;BME280;63361;52.384;20.930;2022-09-27T13:57:46;99110.03;;;15.09;73.47
74834;BME280;63361;52.384;20.930;2022-09-27T14:00:19;99111.13;;;14.71;72.43
74834;BME280;63361;52.384;20.930;2022-09-27T14:05:26;99087.25;;;14.89;72.94
74834;BME280;63361;52.384;20.930;2022-09-27T14:07:52;99088.28;;;14.97;72.50
74834;BME280;63361;52.384;20.930;2022-09-27T14:10:20;99095.41;;;14.77;73.74
74834;BME280;63361;52.384;20.930;2022-09-27T14:12:48;99098.47;;;14.75;73.80
74834;BME280;63361;52.384;20.930;2022-09-27T14:15:21;99097.91;;;15.06;72.84
74834;BME280;63361;52.384;20.930;2022-09-27T14:17:49;99070.84;;;15.10;72.02
74834;BME280;63361;52.384;20.930;2022-09-27T14:20:41;99082.84;;;15.09;71.81
74834;BME280;63361;52.384;20.930;2022-09-27T14:23:15;99072.75;;;14.85;73.69
74834;BME280;63361;52.384;20.930;2022-09-27T14:25:46;99080.25;;;14.64;73.93
74834;BME280;63361;52.384;20.930;2022-09-27T14:28:29;99065.75;;;14.72;74.06
74834;BME280;63361;52.384;20.930;2022-09-27T14:31:14;99083.53;;;14.57;74.39
74834;BME280;63361;52.384;20.930;2022-09-27T14:33:42;99081.59;;;14.58;74.33
74834;BME280;63361;52.384;20.930;2022-09-27T14:39:31;99071.41;;;14.67;74.16
74834;BME280;63361;52.384;20.930;2022-09-27T14:42:02;99070.53;;;14.51;74.61
74834;BME280;63361;52.384;20.930;2022-09-27T14:44:29;99067.50;;;14.19;75.17
74834;BME280;63361;52.384;20.930;2022-09-27T14:49:33;99065.47;;;14.16;75.42
74834;BME280;63361;52.384;20.930;2022-09-27T14:51:58;99079.16;;;14.20;75.84
74834;BME280;63361;52.384;20.930;2022-09-27T14:54:28;99076.31;;;14.16;75.62
74834;BME280;63361;52.384;20.930;2022-09-27T14:56:56;99074.91;;;13.98;76.99
74834;BME280;63361;52.384;20.930;2022-09-27T14:59:33;99073.00;;;14.11;77.33
74834;BME280;63361;52.384;20.930;2022-09-27T15:02:03;99065.31;;;14.00;77.66
74834;BME280;63361;52.384;20.930;2022-09-27T15:04:35;99070.97;;;14.07;76.73
74834;BME280;63361;52.384;20.930;2022-09-27T15:07:01;99079.34;;;14.15;77.15
74834;BME280;63361;52.384;20.930;2022-09-27T15:09:27;99073.78;;;13.99;77.55
74834;BME280;63361;52.384;20.930;2022-09-27T15:11:56;99075.50;;;14.03;76.95
74834;BME280;63361;52.384;20.930;2022-09-27T15:14:25;99073.22;;;14.05;77.66
74834;BME280;63361;52.384;20.930;2022-09-27T15:16:53;99073.31;;;13.97;77.63
74834;BME280;63361;52.384;20.930;2022-09-27T15:19:27;99085.00;;;14.09;77.88
74834;BME280;63361;52.384;20.930;2022-09-27T15:21:54;99074.81;;;14.06;77.90
74834;BME280;63361;52.384;20.930;2022-09-27T15:24:43;99070.00;;;13.91;78.19
74834;BME280;63361;52.384;20.930;2022-09-27T15:27:17;99071.88;;;13.79;78.94
74834;BME280;63361;52.384;20.930;2022-09-27T15:29:56;99072.13;;;13.73;79.68
74834;BME280;63361;52.384;20.930;2022-09-27T15:32:24;99063.72;;;13.66;78.90
74834;BME280;63361;52.384;20.930;2022-09-27T15:34:51;99078.34;;;13.74;78.93
74834;BME280;63361;52.384;20.930;2022-09-27T15:37:37;99069.50;;;13.77;78.46
74834;BME280;63361;52.384;20.930;2022-09-27T15:42:59;99067.81;;;13.72;79.14